Time,TemperatureF,DewpointF,PressureIn,WindDirection,WindDirectionDegrees,WindSpeedMPH,WindSpeedGustMPH,Humidity,HourlyPrecipIn,Conditions,Clouds,dailyrainin,SoftwareType,DateUTC
2013-09-03 00:05:00,74.0,14.0,29.60,North,0,0.0,0.0,1,0.00,,,0.00,WUHU216HW,2013-09-03 04:05:00,
2013-09-03 00:35:00,73.8,14.0,29.60,North,0,0.0,0.0,1,0.00,,,0.00,WUHU216HW,2013-09-03 04:35:00,
2013-09-03 01:05:00,73.8,14.0,29.60,North,0,0.0,0.0,1,0.00,,,0.00,WUHU216HW,2013-09-03 05:05:00,
2013-09-03 01:35:00,73.8,14.0,29.59,North,0,0.0,0.0,1,0.00,,,0.00,WUHU216HW,2013-09-03 05:35:00,
2013-09-03 02:05:00,73.8,14.0,29.59,North,0,0.0,0.0,1,0.00,,,0.00,WUHU216HW,2013-09-03 06:05:00,
2013-09-03 02:35:00,73.6,13.8,29.58,North,0,0.0,0.0,1,0.00,,,0.00,WUHU216HW,2013-09-03 06:35:00,
2013-09-03 03:05:00,73.4,13.7,29.57,North,0,0.0,0.0,1,0.00,,,0.00,WUHU216HW,2013-09-03 07:05:00,
2013-09-03 03:35:00,73.1,13.4,29.57,North,0,0.0,0.0,1,0.00,,,0.00,WUHU216HW,2013-09-03 07:35:00,
2013-09-03 04:05:00,73.1,13.4,29.57,North,0,0.0,0.0,1,0.00,,,0.00,WUHU216HW,2013-09-03 08:05:00,
2013-09-03 04:35:00,73.1,13.4,29.57,North,0,0.0,0.0,1,0.00,,,0.00,WUHU216HW,2013-09-03 08:35:00,
2013-09-03 05:05:00,73.1,13.4,29.57,North,0,0.0,0.0,1,0.00,,,0.00,WUHU216HW,2013-09-03 09:05:00,
2013-09-03 05:35:00,72.5,13.0,29.57,North,0,0.0,0.0,1,0.00,,,0.00,WUHU216HW,2013-09-03 09:35:00,
2013-09-03 06:05:00,72.0,12.5,29.58,North,0,0.0,0.0,1,0.00,,,0.00,WUHU216HW,2013-09-03 10:05:00,
2013-09-03 06:10:00,72.0,12.5,29.58,North,0,0.0,0.0,1,0.00,,,0.00,WUHU216HW,2013-09-03 10:10:00,
2013-09-03 06:35:00,71.6,12.2,29.59,North,0,0.0,0.0,1,0.00,,,0.00,WUHU216HW,2013-09-03 10:35:00,
2013-09-03 07:05:00,71.5,12.1,29.59,North,0,0.0,0.0,1,0.00,,,0.00,WUHU216HW,2013-09-03 11:05:00,
2013-09-03 07:35:00,71.6,12.2,29.60,North,0,0.0,0.0,1,0.00,,,0.00,WUHU216HW,2013-09-03 11:35:00,
2013-09-03 08:05:00,72.0,12.5,29.60,North,0,0.0,0.0,1,0.00,,,0.00,WUHU216HW,2013-09-03 12:05:00,
2013-09-03 08:10:00,72.0,12.5,29.60,North,0,0.0,0.0,1,0.00,,,0.00,WUHU216HW,2013-09-03 12:10:00,
2013-09-03 08:35:00,73.6,13.8,29.60,North,0,0.0,0.0,1,0.00,,,0.00,WUHU216HW,2013-09-03 12:35:00,
2013-09-03 09:05:00,76.0,15.5,29.60,North,0,0.0,0.0,1,0.00,,,0.00,WUHU216HW,2013-09-03 13:05:00,
2013-09-03 09:10:00,76.0,15.5,29.60,North,0,0.0,0.0,1,0.00,,,0.00,WUHU216HW,2013-09-03 13:10:00,
2013-09-03 09:35:00,77.0,16.4,29.62,North,0,0.0,0.0,1,0.00,,,0.00,WUHU216HW,2013-09-03 13:35:00,
2013-09-03 10:05:00,77.9,17.0,29.62,North,0,0.0,0.0,1,0.00,,,0.00,WUHU216HW,2013-09-03 14:05:00,
2013-09-03 10:10:00,77.9,17.0,29.62,North,0,0.0,0.0,1,0.00,,,0.00,WUHU216HW,2013-09-03 14:10:00,
2013-09-03 10:35:00,82.1,20.3,29.64,North,0,0.0,0.0,1,0.00,,,0.00,WUHU216HW,2013-09-03 14:35:00,
2013-09-03 11:05:00,85.3,22.7,29.65,North,0,0.0,0.0,1,0.00,,,0.00,WUHU216HW,2013-09-03 15:05:00,
2013-09-03 11:35:00,89.6,25.9,29.65,North,0,0.0,0.0,1,0.00,,,0.00,WUHU216HW,2013-09-03 15:35:00,
2013-09-03 12:05:00,93.2,28.6,29.64,North,0,0.0,0.0,1,0.00,,,0.00,WUHU216HW,2013-09-03 16:05:00,
2013-09-03 12:35:00,93.2,28.6,29.63,North,0,0.0,0.0,1,0.00,,,0.00,WUHU216HW,2013-09-03 16:35:00,
2013-09-03 13:05:00,92.2,27.9,29.63,North,0,0.0,0.0,1,0.00,,,0.00,WUHU216HW,2013-09-03 17:05:00,
2013-09-03 13:35:00,92.3,28.0,29.62,North,0,0.0,0.0,1,0.00,,,0.00,WUHU216HW,2013-09-03 17:35:00,
2013-09-03 14:05:00,92.2,27.9,29.61,North,0,0.0,0.0,1,0.00,,,0.00,WUHU216HW,2013-09-03 18:05:00,
2013-09-03 14:35:00,92.0,27.7,29.60,North,0,0.0,0.0,1,0.00,,,0.00,WUHU216HW,2013-09-03 18:35:00,
2013-09-03 15:05:00,92.5,28.1,29.58,North,0,0.0,0.0,1,0.00,,,0.00,WUHU216HW,2013-09-03 19:05:00,
2013-09-03 15:35:00,93.6,28.9,29.57,North,0,0.0,0.0,1,0.00,,,0.00,WUHU216HW,2013-09-03 19:35:00,
2013-09-03 16:05:00,93.6,28.9,29.56,North,0,0.0,0.0,1,0.00,,,0.00,WUHU216HW,2013-09-03 20:05:00,
2013-09-03 16:35:00,93.4,28.8,29.55,North,0,0.0,0.0,1,0.00,,,0.00,WUHU216HW,2013-09-03 20:35:00,
2013-09-03 17:05:00,93.2,28.6,29.55,North,0,0.0,0.0,1,0.00,,,0.00,WUHU216HW,2013-09-03 21:05:00,
2013-09-03 17:35:00,92.9,28.4,29.54,North,0,0.0,0.0,1,0.00,,,0.00,WUHU216HW,2013-09-03 21:35:00,
2013-09-03 18:05:00,92.2,27.9,29.54,North,0,0.0,0.0,1,0.00,,,0.00,WUHU216HW,2013-09-03 22:05:00,
2013-09-03 18:35:00,91.1,27.1,29.54,North,0,0.0,0.0,1,0.00,,,0.00,WUHU216HW,2013-09-03 22:35:00,
2013-09-03 19:05:00,88.7,25.3,29.54,North,0,0.0,0.0,1,0.00,,,0.00,WUHU216HW,2013-09-03 23:05:00,
2013-09-03 19:35:00,87.5,24.4,29.57,North,0,0.0,0.0,1,0.00,,,0.00,WUHU216HW,2013-09-03 23:35:00,
2013-09-03 20:05:00,86.0,23.2,29.58,North,0,0.0,0.0,1,0.00,,,0.00,WUHU216HW,2013-09-04 00:05:00,
2013-09-03 20:35:00,85.3,22.7,29.59,North,0,0.0,0.0,1,0.00,,,0.00,WUHU216HW,2013-09-04 00:35:00,
2013-09-03 21:05:00,83.9,21.5,29.60,North,0,0.0,0.0,1,0.00,,,0.00,WUHU216HW,2013-09-04 01:05:00,
2013-09-03 21:35:00,82.3,20.3,29.62,North,0,0.0,0.0,1,0.00,,,0.00,WUHU216HW,2013-09-04 01:35:00,
2013-09-03 22:05:00,81.0,19.4,29.63,North,0,0.0,0.0,1,0.00,,,0.00,WUHU216HW,2013-09-04 02:05:00,
2013-09-03 22:35:00,80.6,19.1,29.63,North,0,0.0,0.0,1,0.00,,,0.00,WUHU216HW,2013-09-04 02:35:00,
2013-09-03 23:05:00,79.6,18.2,29.64,North,0,0.0,0.0,1,0.00,,,0.00,WUHU216HW,2013-09-04 03:05:00,
2013-09-03 23:35:00,78.7,17.6,29.64,North,0,0.0,0.0,1,0.00,,,0.00,WUHU216HW,2013-09-04 03:35:00,